Time;durP1;ratioP1;P1;durP2;ratioP2;P2;SDS_P1;SDS_P2;PMS_P1;PMS_P2;Temp;Humidity;BMP_temperature;BMP_pressure;BME280_temperature;BME280_humidity;BME280_pressure;Samples;Min_cycle;Max_cycle;Signal;HPM_P1;HPM_P2
2023/03/03 00:01:20;;;;;;;11.73;6.82;;;;;;;17.63;43.21;100457.31;5078080;28;20048;-66
2023/03/03 00:03:48;;;;;;;11.73;6.15;;;;;;;17.60;43.04;100458.44;5078220;28;20048;-66
2023/03/03 00:06:17;;;;;;;11.73;7.15;;;;;;;17.57;42.77;100449.78;5078186;28;20485;-64
2023/03/03 00:08:45;;;;;;;12.07;7.13;;;;;;;17.54;42.85;100445.47;5078144;28;20044;-66
2023/03/03 00:11:14;;;;;;;11.25;7.00;;;;;;;17.52;42.54;100455.56;5078075;28;20068;-65
2023/03/03 00:13:46;;;;;;;11.52;7.07;;;;;;;17.48;43.03;100448.72;5078088;28;20044;-64
2023/03/03 00:16:20;;;;;;;12.27;6.97;;;;;;;17.46;42.81;100446.13;5078067;28;20417;-65
2023/03/03 00:18:51;;;;;;;12.32;7.07;;;;;;;17.43;43.17;100450.94;5077884;28;20049;-65
2023/03/03 00:21:28;;;;;;;12.95;7.60;;;;;;;17.41;42.86;100447.53;5078132;28;20052;-65
2023/03/03 00:24:18;;;;;;;10.50;6.75;;;;;;;17.37;43.22;100441.56;5077903;28;20489;-65
2023/03/03 00:26:50;;;;;;;10.52;6.80;;;;;;;17.34;43.34;100444.50;5077953;28;20132;-65
2023/03/03 00:29:36;;;;;;;12.05;7.75;;;;;;;17.31;42.99;100436.69;5078191;28;20053;-65
2023/03/03 00:32:21;;;;;;;11.55;7.18;;;;;;;17.28;43.48;100436.09;5077884;28;20051;-65
2023/03/03 00:34:52;;;;;;;12.80;7.10;;;;;;;17.27;43.09;100442.44;5078018;28;20067;-65
2023/03/03 00:37:32;;;;;;;10.98;7.45;;;;;;;17.23;43.23;100435.63;5077869;28;20534;-64
2023/03/03 00:40:31;;;;;;;11.77;7.38;;;;;;;17.19;43.12;100431.50;5077636;28;20110;-64
2023/03/03 00:43:00;;;;;;;12.43;7.72;;;;;;;17.16;42.69;100433.44;5054864;28;20139;-64
2023/03/03 00:45:32;;;;;;;12.75;7.90;;;;;;;17.14;43.15;100435.41;5077848;28;20068;-64
2023/03/03 00:48:10;;;;;;;11.23;7.13;;;;;;;17.13;42.92;100438.25;5077828;28;20076;-63
2023/03/03 00:50:44;;;;;;;11.75;7.70;;;;;;;17.09;42.92;100424.19;5077775;28;20044;-66
2023/03/03 00:53:13;;;;;;;11.00;7.22;;;;;;;17.09;42.84;100432.28;5077731;28;20046;-64
2023/03/03 00:55:41;;;;;;;12.93;8.30;;;;;;;17.06;42.82;100429.81;5077383;28;20068;-64
2023/03/03 00:58:10;;;;;;;11.13;7.45;;;;;;;17.04;42.72;100421.00;5073941;28;20048;-64
2023/03/03 01:00:39;;;;;;;13.98;7.50;;;;;;;17.02;42.89;100420.28;5074516;28;20041;-64
2023/03/03 01:03:10;;;;;;;10.95;7.50;;;;;;;16.99;42.76;100414.31;5074571;28;20075;-64
2023/03/03 01:05:39;;;;;;;12.40;7.82;;;;;;;16.96;43.03;100415.41;5074476;28;20446;-65
2023/03/03 01:08:09;;;;;;;11.77;7.72;;;;;;;16.95;43.15;100419.09;5074360;28;20033;-64
2023/03/03 01:10:40;;;;;;;12.73;7.78;;;;;;;16.93;42.82;100406.75;5074285;28;20044;-64
2023/03/03 01:13:10;;;;;;;11.55;7.70;;;;;;;16.87;42.98;100403.56;5074183;28;20520;-64
2023/03/03 01:15:38;;;;;;;11.85;8.10;;;;;;;16.87;42.63;100405.41;5074139;28;20408;-63
2023/03/03 01:18:07;;;;;;;12.25;7.75;;;;;;;16.86;43.17;100407.25;5074222;28;20044;-65
2023/03/03 01:20:36;;;;;;;11.15;7.10;;;;;;;16.84;43.08;100405.66;5074161;28;20048;-64
2023/03/03 01:23:04;;;;;;;12.52;8.10;;;;;;;16.82;42.89;100405.81;5074149;28;20505;-64
2023/03/03 01:25:33;;;;;;;11.80;8.43;;;;;;;16.79;42.70;100402.50;5073992;28;20401;-64
2023/03/03 01:28:02;;;;;;;12.70;7.97;;;;;;;16.78;43.05;100403.47;5074046;28;20374;-63
2023/03/03 01:30:30;;;;;;;11.93;7.25;;;;;;;16.75;42.93;100404.59;5073824;28;20045;-63
2023/03/03 01:32:59;;;;;;;11.93;7.65;;;;;;;16.74;42.90;100393.94;5073908;28;20037;-64
2023/03/03 01:35:28;;;;;;;12.63;8.40;;;;;;;16.71;42.60;100400.47;5073908;28;20452;-65
2023/03/03 01:37:58;;;;;;;11.98;7.88;;;;;;;16.68;42.91;100394.41;5073580;28;20052;-65
2023/03/03 01:40:28;;;;;;;13.80;8.52;;;;;;;16.64;42.92;100388.44;5073685;28;20055;-64
2023/03/03 01:42:59;;;;;;;14.27;8.88;;;;;;;16.65;42.67;100392.00;5073593;28;20044;-65
2023/03/03 01:45:28;;;;;;;13.70;8.45;;;;;;;16.63;42.88;100386.75;5073735;28;20413;-65
2023/03/03 01:48:01;;;;;;;15.45;8.68;;;;;;;16.60;42.62;100389.69;5073662;28;20051;-65
2023/03/03 01:50:45;;;;;;;13.07;8.75;;;;;;;16.57;42.98;100387.25;5073457;28;20072;-65
2023/03/03 01:53:19;;;;;;;13.85;8.60;;;;;;;16.57;42.76;100392.63;5073491;28;20083;-65
2023/03/03 01:55:47;;;;;;;;;;;;;;;16.54;42.72;100388.34;5073929;28;20067;-66
2023/03/03 01:58:21;;;;;;;13.80;7.93;;;;;;;16.51;42.94;100382.38;5073265;28;19959;-63
2023/03/03 02:00:52;;;;;;;14.02;9.02;;;;;;;16.51;42.90;100379.69;5073201;28;20040;-63
2023/03/03 02:03:22;;;;;;;13.65;8.13;;;;;;;16.48;43.09;100383.47;5073247;28;20636;-64
2023/03/03 02:05:54;;;;;;;14.98;9.40;;;;;;;16.47;42.71;100384.44;5073408;28;20428;-64
2023/03/03 02:08:31;;;;;;;13.68;8.75;;;;;;;16.45;42.84;100383.72;5071972;28;20049;-64
2023/03/03 02:10:59;;;;;;;15.55;10.00;;;;;;;16.42;42.52;100383.13;5073052;28;20120;-66
2023/03/03 02:13:29;;;;;;;16.52;9.85;;;;;;;16.38;42.68;100387.91;5073065;28;20048;-64
2023/03/03 02:15:58;;;;;;;14.18;9.80;;;;;;;16.39;42.59;100386.91;5072955;28;20391;-64
2023/03/03 02:18:27;;;;;;;15.70;9.30;;;;;;;16.38;42.91;100381.66;5072915;28;20076;-63
2023/03/03 02:21:02;;;;;;;14.75;8.93;;;;;;;16.36;42.85;100380.94;5072850;28;20086;-63
2023/03/03 02:23:35;;;;;;;14.77;9.70;;;;;;;16.33;42.76;100382.06;5072884;28;20044;-64
2023/03/03 02:26:08;;;;;;;16.70;9.82;;;;;;;16.30;42.69;100380.44;5072870;28;20060;-64
2023/03/03 02:28:38;;;;;;;15.10;9.82;;;;;;;16.30;42.80;100375.06;5072822;28;20098;-64
2023/03/03 02:31:11;;;;;;;14.70;9.93;;;;;;;16.29;42.72;100383.28;5072849;28;20074;-64
2023/03/03 02:33:40;;;;;;;16.05;10.48;;;;;;;16.27;42.69;100385.25;5072806;28;20123;-64
2023/03/03 02:36:12;;;;;;;15.68;10.25;;;;;;;16.24;42.70;100382.81;5072593;28;20040;-65
2023/03/03 02:38:46;;;;;;;13.70;9.73;;;;;;;16.25;42.88;100387.22;5072268;28;20515;-65
2023/03/03 02:41:25;;;;;;;15.77;10.25;;;;;;;16.21;42.64;100383.03;5072674;28;20401;-65
2023/03/03 02:43:58;;;;;;;15.93;10.10;;;;;;;16.19;42.91;100376.94;5072589;28;20044;-65
2023/03/03 02:46:28;;;;;;;14.82;10.02;;;;;;;16.19;42.66;100371.53;5072591;28;20485;-63
2023/03/03 02:48:56;;;;;;;13.93;9.40;;;;;;;16.17;42.85;100368.13;5072532;28;20490;-64
2023/03/03 02:51:24;;;;;;;14.30;9.82;;;;;;;16.16;42.78;100369.13;5072390;28;20048;-65
2023/03/03 02:53:52;;;;;;;13.95;10.18;;;;;;;16.12;43.05;100368.53;5072342;28;20052;-65
2023/03/03 02:56:22;;;;;;;15.25;10.18;;;;;;;16.10;42.98;100369.59;5072276;28;20048;-65
2023/03/03 02:58:50;;;;;;;16.02;10.63;;;;;;;16.08;42.87;100363.50;5072113;28;20115;-66
2023/03/03 03:01:18;;;;;;;15.25;9.95;;;;;;;16.08;42.91;100363.50;5072246;28;20044;-65
2023/03/03 03:03:47;;;;;;;16.83;10.07;;;;;;;16.05;42.88;100355.69;5072087;28;20045;-65
2023/03/03 03:06:15;;;;;;;14.95;10.25;;;;;;;16.01;43.08;100352.38;5072224;28;20049;-65
2023/03/03 03:08:43;;;;;;;15.48;10.43;;;;;;;16.02;42.89;100349.59;5072088;28;20044;-65
2023/03/03 03:11:11;;;;;;;16.25;10.80;;;;;;;16.00;42.96;100346.13;5072114;28;20116;-64
2023/03/03 03:13:41;;;;;;;14.55;10.00;;;;;;;15.99;43.12;100349.81;5071992;28;20048;-65
2023/03/03 03:16:09;;;;;;;15.35;9.52;;;;;;;15.96;43.07;100355.44;5071974;28;20409;-65
2023/03/03 03:18:37;;;;;;;17.65;10.55;;;;;;;15.96;42.91;100352.75;5071922;28;20052;-64
2023/03/03 03:21:07;;;;;;;17.58;10.82;;;;;;;15.95;43.04;100344.81;5071726;28;20106;-66
2023/03/03 03:23:35;;;;;;;14.30;10.10;;;;;;;15.94;42.98;100345.81;5071930;28;20044;-63
2023/03/03 03:26:07;;;;;;;15.70;10.50;;;;;;;15.91;42.97;100341.50;5071963;28;20117;-64
2023/03/03 03:28:36;;;;;;;15.05;10.02;;;;;;;15.90;43.19;100342.47;5051772;28;20045;-64
2023/03/03 03:31:07;;;;;;;16.00;10.35;;;;;;;15.87;43.15;100334.66;5051657;28;20049;-63
2023/03/03 03:33:36;;;;;;;16.00;10.60;;;;;;;15.86;43.04;100335.66;5051770;28;20060;-64
2023/03/03 03:36:05;;;;;;;15.88;11.10;;;;;;;15.85;43.13;100336.63;5051743;28;20095;-64
2023/03/03 03:38:35;;;;;;;17.60;11.25;;;;;;;15.83;43.02;100341.28;5051648;28;20466;-65
2023/03/03 03:41:04;;;;;;;16.63;10.90;;;;;;;15.82;43.21;100336.84;5051774;28;20402;-65
2023/03/03 03:43:33;;;;;;;14.80;10.80;;;;;;;15.82;43.09;100330.63;5051777;28;20410;-63
2023/03/03 03:46:01;;;;;;;16.45;11.18;;;;;;;15.77;43.18;100322.94;5051713;28;20051;-65
2023/03/03 03:48:30;;;;;;;16.17;10.50;;;;;;;15.79;43.22;100334.44;5051701;28;20139;-64
2023/03/03 03:50:59;;;;;;;17.33;10.60;;;;;;;15.78;43.15;100329.19;5051594;28;20045;-63
2023/03/03 03:53:27;;;;;;;17.38;11.68;;;;;;;15.76;43.15;100321.25;5051710;28;20045;-65
2023/03/03 03:55:55;;;;;;;17.30;10.98;;;;;;;15.75;43.40;100327.59;5051520;28;20048;-65
2023/03/03 03:58:23;;;;;;;14.75;10.45;;;;;;;15.73;43.24;100321.50;5050266;28;20053;-63
2023/03/03 04:00:52;;;;;;;16.48;10.63;;;;;;;15.71;43.31;100323.44;5068192;28;20087;-65
2023/03/03 04:03:20;;;;;;;14.45;10.27;;;;;;;15.70;43.42;100322.56;5071627;28;20472;-63
2023/03/03 04:05:52;;;;;;;18.90;11.50;;;;;;;15.68;43.23;100312.94;5071663;28;20113;-65
2023/03/03 04:08:21;;;;;;;17.10;11.20;;;;;;;15.68;43.29;100318.31;5071396;28;20409;-64
2023/03/03 04:10:49;;;;;;;17.63;11.50;;;;;;;15.68;43.19;100321.00;5071344;28;20045;-63
2023/03/03 04:13:17;;;;;;;17.48;11.18;;;;;;;15.66;43.13;100320.28;5071289;28;20072;-62
2023/03/03 04:15:46;;;;;;;15.93;10.82;;;;;;;15.61;43.30;100319.78;5071348;28;20498;-64
2023/03/03 04:18:14;;;;;;;17.33;11.60;;;;;;;15.63;43.29;100321.38;5071439;28;20477;-64
2023/03/03 04:20:42;;;;;;;16.63;10.48;;;;;;;15.62;43.54;100324.16;5071197;28;20044;-64
2023/03/03 04:23:13;;;;;;;14.45;10.02;;;;;;;15.61;43.45;100322.47;5071098;28;20079;-64
2023/03/03 04:25:41;;;;;;;19.00;11.43;;;;;;;15.56;43.36;100313.88;5071489;28;20389;-64
2023/03/03 04:28:12;;;;;;;16.40;11.40;;;;;;;15.58;43.39;100317.31;5071591;28;20068;-65
2023/03/03 04:30:40;;;;;;;18.25;11.23;;;;;;;15.56;43.41;100317.44;5071323;28;20055;-65
2023/03/03 04:33:08;;;;;;;16.95;11.55;;;;;;;15.55;43.37;100321.09;5074423;28;20068;-65
2023/03/03 04:35:36;;;;;;;21.00;11.23;;;;;;;15.55;43.31;100314.88;5075008;28;20044;-65
2023/03/03 04:38:05;;;;;;;16.42;10.60;;;;;;;15.56;43.75;100321.94;5074782;28;20060;-65
2023/03/03 04:40:34;;;;;;;14.60;10.27;;;;;;;15.59;44.32;100319.00;5075016;28;20079;-65
2023/03/03 04:43:03;;;;;;;14.15;10.50;;;;;;;15.61;44.52;100311.69;5074769;28;20048;-65
2023/03/03 04:45:31;;;;;;;17.65;10.65;;;;;;;15.69;44.65;100311.94;5074879;28;20110;-64
2023/03/03 04:47:59;;;;;;;15.55;10.93;;;;;;;15.78;44.64;100319.28;5074827;28;20044;-65
2023/03/03 04:50:27;;;;;;;16.00;10.27;;;;;;;15.87;44.63;100317.69;5074556;28;20064;-64
2023/03/03 04:52:55;;;;;;;16.40;10.02;;;;;;;15.97;44.45;100315.94;5074626;28;20051;-64
2023/03/03 04:55:23;;;;;;;13.70;9.60;;;;;;;16.05;44.36;100315.34;5074540;28;20045;-64
2023/03/03 04:57:53;;;;;;;15.73;10.43;;;;;;;16.16;44.25;100315.28;5074578;28;20167;-63
2023/03/03 05:00:21;;;;;;;15.23;10.50;;;;;;;16.27;44.17;100317.94;5074359;28;20485;-64
2023/03/03 05:02:49;;;;;;;16.35;10.40;;;;;;;16.35;44.00;100320.88;5074328;28;20055;-63
2023/03/03 05:05:18;;;;;;;15.73;11.05;;;;;;;16.47;43.97;100322.53;5074418;28;20411;-64
2023/03/03 05:07:46;;;;;;;14.50;10.60;;;;;;;16.56;43.60;100321.75;5074326;28;20098;-65
2023/03/03 05:10:14;;;;;;;15.50;10.48;;;;;;;16.67;43.54;100322.69;5074376;28;20044;-64
2023/03/03 05:12:43;;;;;;;14.25;10.00;;;;;;;16.76;43.35;100316.56;5074206;28;20044;-64
2023/03/03 05:15:13;;;;;;;14.93;10.38;;;;;;;16.83;43.35;100320.44;5074257;28;20048;-64
2023/03/03 05:17:41;;;;;;;16.83;10.07;;;;;;;16.87;43.08;100314.66;5073861;28;20040;-65
2023/03/03 05:20:14;;;;;;;14.80;10.05;;;;;;;16.92;42.86;100316.13;5074151;28;20147;-65
2023/03/03 05:22:42;;;;;;;16.70;11.23;;;;;;;16.95;43.08;100316.69;5074105;28;20052;-66
2023/03/03 05:25:11;;;;;;;16.63;10.65;;;;;;;16.95;43.05;100315.84;5074008;28;20478;-64
2023/03/03 05:27:39;;;;;;;15.75;10.77;;;;;;;16.95;43.01;100319.41;5074060;28;20068;-64
2023/03/03 05:30:09;;;;;;;15.52;10.15;;;;;;;16.94;42.98;100323.06;5073809;28;20501;-64
2023/03/03 05:32:38;;;;;;;15.77;10.88;;;;;;;16.93;43.09;100315.97;5073913;28;20074;-65
2023/03/03 05:35:07;;;;;;;15.30;10.52;;;;;;;16.93;42.91;100324.06;5073903;28;20055;-64
2023/03/03 05:37:35;;;;;;;15.07;10.63;;;;;;;16.92;42.71;100325.06;5073581;28;20052;-65
2023/03/03 05:40:04;;;;;;;14.38;10.38;;;;;;;16.90;42.91;100332.41;5073696;28;20050;-65
2023/03/03 05:42:32;;;;;;;15.75;11.20;;;;;;;16.86;42.80;100325.56;5073266;28;20448;-64
2023/03/03 05:45:01;;;;;;;15.13;10.85;;;;;;;16.86;42.82;100329.13;5073627;28;20550;-65
2023/03/03 05:47:29;;;;;;;14.88;10.13;;;;;;;16.83;42.77;100323.16;5073614;28;20547;-64
2023/03/03 05:49:59;;;;;;;16.35;11.05;;;;;;;16.80;42.83;100328.81;5073376;28;20056;-64
2023/03/03 05:52:28;;;;;;;15.35;10.75;;;;;;;16.78;42.93;100326.22;5072996;28;20123;-64
2023/03/03 05:54:56;;;;;;;17.08;10.57;;;;;;;16.76;43.02;100338.97;5073210;28;20048;-64
2023/03/03 05:57:24;;;;;;;15.07;10.95;;;;;;;16.73;43.36;100335.69;5073225;28;20041;-64
2023/03/03 05:59:52;;;;;;;14.02;9.90;;;;;;;16.70;43.40;100338.66;5073116;28;20128;-63
2023/03/03 06:02:20;;;;;;;13.15;9.30;;;;;;;16.69;43.26;100337.75;5073075;28;20045;-65
2023/03/03 06:04:48;;;;;;;15.57;10.30;;;;;;;16.67;43.40;100346.94;5072858;28;20056;-64
2023/03/03 06:07:18;;;;;;;14.50;10.45;;;;;;;16.62;43.41;100344.63;5071954;28;20044;-64
2023/03/03 06:09:47;;;;;;;18.00;11.27;;;;;;;16.57;43.16;100339.63;5070884;28;20106;-65
2023/03/03 06:12:16;;;;;;;14.15;9.82;;;;;;;16.53;42.72;100338.19;5072807;28;20094;-65
2023/03/03 06:14:44;;;;;;;17.27;11.00;;;;;;;16.54;42.21;100339.88;5072791;28;20033;-65
2023/03/03 06:17:12;;;;;;;16.45;11.02;;;;;;;16.50;42.36;100333.06;5073104;28;20045;-64
2023/03/03 06:19:41;;;;;;;15.70;10.90;;;;;;;16.49;42.30;100338.53;5072969;28;20037;-64
2023/03/03 06:22:09;;;;;;;15.52;10.57;;;;;;;16.47;42.33;100337.84;5072708;28;20094;-66
2023/03/03 06:24:39;;;;;;;18.40;11.27;;;;;;;16.44;42.70;100338.94;5073575;28;20048;-66
2023/03/03 06:27:07;;;;;;;16.23;10.55;;;;;;;16.41;42.63;100344.59;5071879;28;20044;-65
2023/03/03 06:29:35;;;;;;;17.67;11.85;;;;;;;16.40;42.60;100340.16;5072352;28;20048;-65
2023/03/03 06:32:03;;;;;;;16.25;10.48;;;;;;;16.38;42.76;100341.28;5075145;28;20400;-64
2023/03/03 06:34:32;;;;;;;15.90;10.65;;;;;;;16.36;42.82;100345.94;5072433;28;20041;-64
2023/03/03 06:37:00;;;;;;;14.80;10.65;;;;;;;16.34;42.78;100343.38;5071955;28;20173;-64
2023/03/03 06:39:28;;;;;;;15.38;11.15;;;;;;;16.31;43.02;100344.50;5069522;28;20051;-64
2023/03/03 06:41:58;;;;;;;16.50;10.20;;;;;;;16.29;43.36;100343.75;5072109;28;20043;-64
2023/03/03 06:44:26;;;;;;;15.15;10.50;;;;;;;16.27;43.34;100352.94;5072158;28;20115;-63
2023/03/03 06:46:57;;;;;;;16.52;10.45;;;;;;;16.24;43.21;100345.97;5071649;28;20047;-62
2023/03/03 06:49:25;;;;;;;17.48;10.80;;;;;;;16.23;43.16;100352.34;5071903;28;20083;-65
2023/03/03 06:51:54;;;;;;;16.23;10.52;;;;;;;16.21;43.43;100358.81;5071329;28;20041;-65
2023/03/03 06:54:28;;;;;;;16.45;10.32;;;;;;;16.20;43.34;100357.09;5070873;28;20036;-65
2023/03/03 06:57:08;;;;;;;16.27;9.93;;;;;;;16.16;43.70;100361.03;5070643;28;20045;-65
2023/03/03 06:59:39;;;;;;;16.38;10.40;;;;;;;16.16;43.83;100361.03;5070123;28;20131;-64
2023/03/03 07:02:14;;;;;;;15.85;10.18;;;;;;;16.14;43.90;100368.41;5071335;28;20067;-65
2023/03/03 07:04:43;;;;;;;16.58;10.68;;;;;;;16.11;43.94;100365.94;5071272;28;20405;-65
2023/03/03 07:07:19;;;;;;;18.25;10.20;;;;;;;16.09;43.91;100371.44;5070366;28;20090;-65
2023/03/03 07:09:49;;;;;;;14.82;10.63;;;;;;;16.07;44.03;100372.56;5070952;28;20078;-64
2023/03/03 07:12:21;;;;;;;17.98;10.75;;;;;;;16.07;44.08;100373.41;5070938;28;20547;-65
2023/03/03 07:14:54;;;;;;;16.08;9.98;;;;;;;16.06;44.03;100376.22;5067972;28;20060;-65
2023/03/03 07:17:24;;;;;;;;;;;;;;;16.05;44.17;100382.59;5072951;28;20044;-63
2023/03/03 07:19:53;;;;;;;15.98;9.85;;;;;;;16.02;44.01;100376.47;5072191;28;19952;-64
2023/03/03 07:22:24;;;;;;;17.75;10.25;;;;;;;16.00;44.22;100381.09;5072054;28;20044;-63
2023/03/03 07:24:54;;;;;;;18.58;11.68;;;;;;;16.00;44.05;100381.09;5055292;28;20063;-61
2023/03/03 07:27:25;;;;;;;16.95;10.38;;;;;;;15.99;44.29;100390.16;5071753;28;20390;-65
2023/03/03 07:30:15;;;;;;;16.45;10.90;;;;;;;15.97;44.30;100394.81;5071496;28;20048;-63
2023/03/03 07:32:46;;;;;;;15.82;11.07;;;;;;;15.95;44.50;100394.09;5075250;28;20127;-64
2023/03/03 07:35:36;;;;;;;19.20;10.90;;;;;;;15.94;44.67;100392.38;5071466;28;20041;-64
2023/03/03 07:38:23;;;;;;;15.43;9.70;;;;;;;15.93;44.51;100390.69;5070991;28;20139;-64
2023/03/03 07:40:54;;;;;;;15.95;10.75;;;;;;;15.92;44.60;100398.84;5054800;28;20466;-64
2023/03/03 07:43:32;;;;;;;15.65;10.10;;;;;;;15.90;44.71;100390.91;5071288;28;20432;-63
2023/03/03 07:46:15;;;;;;;15.23;10.18;;;;;;;15.91;44.84;100384.53;5071143;28;20147;-64
2023/03/03 07:48:43;;;;;;;14.88;10.15;;;;;;;15.90;44.95;100388.22;5071198;28;20060;-62
2023/03/03 07:51:21;;;;;;;19.08;10.23;;;;;;;15.89;44.94;100386.50;5071471;28;20052;-62
2023/03/03 07:53:50;;;;;;;17.65;11.05;;;;;;;15.87;45.32;100391.16;5070961;28;20040;-63
2023/03/03 07:56:31;;;;;;;17.50;10.63;;;;;;;15.87;44.95;100390.31;5070935;28;20486;-64
2023/03/03 07:59:07;;;;;;;14.35;9.80;;;;;;;15.87;45.04;100388.47;5055346;28;20043;-64
2023/03/03 08:01:41;;;;;;;20.90;11.00;;;;;;;15.85;44.96;100387.75;5071111;28;20098;-65
2023/03/03 08:04:16;;;;;;;15.45;10.15;;;;;;;15.84;45.05;100388.72;5071288;28;20046;-64
2023/03/03 08:06:48;;;;;;;16.80;10.85;;;;;;;15.83;45.19;100381.63;5073738;28;20048;-64
2023/03/03 08:09:47;;;;;;;17.33;10.38;;;;;;;15.84;45.23;100388.72;5073520;28;20554;-64
2023/03/03 08:12:41;;;;;;;17.67;10.30;;;;;;;15.83;45.27;100380.78;5054704;28;20047;-63
2023/03/03 08:15:22;;;;;;;19.60;10.95;;;;;;;15.83;45.08;100378.94;5053261;28;20516;-64
2023/03/03 08:17:52;;;;;;;15.13;10.60;;;;;;;15.81;45.35;100372.81;5054576;28;20094;-64
2023/03/03 08:20:51;;;;;;;18.35;10.23;;;;;;;15.80;45.44;100376.47;5054028;28;20099;-64
2023/03/03 08:23:21;;;;;;;25.50;11.43;;;;;;;15.82;45.25;100385.28;5054566;28;20581;-64
2023/03/03 08:25:51;;;;;;;19.98;10.82;;;;;;;15.78;45.45;100378.44;5054900;28;20049;-64
2023/03/03 08:28:20;;;;;;;17.48;11.52;;;;;;;15.81;45.43;100380.88;5054923;28;20454;-63
2023/03/03 08:30:50;;;;;;;15.98;10.23;;;;;;;15.81;45.46;100380.88;5055014;28;20045;-64
2023/03/03 08:33:27;;;;;;;16.95;10.48;;;;;;;15.81;45.41;100380.88;5055064;28;20045;-65
2023/03/03 08:35:55;;;;;;;15.95;10.52;;;;;;;15.77;45.44;100376.72;5054914;28;20107;-63
2023/03/03 08:38:24;;;;;;;16.00;10.57;;;;;;;15.80;45.70;100381.00;5054990;28;20060;-63
2023/03/03 08:40:52;;;;;;;18.63;10.65;;;;;;;15.80;45.68;100381.00;5054784;28;20120;-64
2023/03/03 08:43:21;;;;;;;15.88;10.23;;;;;;;15.79;45.43;100380.16;5054406;28;20378;-64
2023/03/03 08:45:53;;;;;;;17.25;11.32;;;;;;;15.78;45.51;100366.81;5054405;28;20486;-64
2023/03/03 08:48:21;;;;;;;17.80;10.90;;;;;;;15.80;45.32;100379.16;5054410;28;20471;-64
2023/03/03 08:50:50;;;;;;;18.52;10.73;;;;;;;15.80;45.65;100381.84;5054346;28;20048;-63
2023/03/03 08:53:21;;;;;;;17.92;10.52;;;;;;;15.81;45.38;100383.56;5054439;28;20129;-64
2023/03/03 08:55:50;;;;;;;16.73;11.57;;;;;;;15.77;45.42;100371.34;5054283;28;20045;-64
2023/03/03 08:58:20;;;;;;;16.05;10.90;;;;;;;15.80;45.55;100381.84;5054407;28;20052;-64
2023/03/03 09:01:04;;;;;;;18.00;11.30;;;;;;;15.81;45.41;100372.81;5054147;28;20047;-64
2023/03/03 09:03:32;;;;;;;18.08;10.80;;;;;;;15.82;45.40;100379.03;5054118;28;20069;-63
2023/03/03 09:06:00;;;;;;;16.20;11.05;;;;;;;15.81;45.50;100378.19;5054308;28;20080;-64
2023/03/03 09:08:28;;;;;;;16.85;11.10;;;;;;;15.80;45.23;100371.09;5054221;28;20110;-64
2023/03/03 09:10:56;;;;;;;16.95;10.55;;;;;;;15.82;45.24;100371.81;5054208;28;20052;-64
2023/03/03 09:13:25;;;;;;;15.88;10.15;;;;;;;15.82;45.45;100374.50;5054111;28;20045;-64
2023/03/03 09:15:53;;;;;;;15.75;10.90;;;;;;;15.83;45.19;100375.41;5053933;28;20055;-64
2023/03/03 09:18:31;;;;;;;16.35;10.55;;;;;;;15.83;45.21;100376.25;5053252;28;20047;-65
2023/03/03 09:20:59;;;;;;;14.88;10.13;;;;;;;15.83;45.40;100370.88;5053916;28;20045;-65
2023/03/03 09:23:34;;;;;;;18.52;10.57;;;;;;;15.82;45.03;100363.75;5053656;28;20482;-62
2023/03/03 09:26:23;;;;;;;16.08;10.43;;;;;;;15.85;45.21;100373.44;5053879;28;20045;-63
2023/03/03 09:28:51;;;;;;;16.02;10.52;;;;;;;15.85;45.16;100373.44;5053919;28;20470;-63
2023/03/03 09:31:25;;;;;;;15.35;10.35;;;;;;;15.85;45.09;100366.22;5053877;28;20123;-64
2023/03/03 09:33:56;;;;;;;15.20;10.05;;;;;;;15.86;45.14;100367.94;5053901;28;20053;-62
2023/03/03 09:36:28;;;;;;;17.13;10.27;;;;;;;15.86;45.22;100369.75;5053771;28;20064;-62
2023/03/03 09:38:57;;;;;;;18.83;11.38;;;;;;;15.87;45.07;100366.94;5053335;28;20053;-64
2023/03/03 09:41:48;;;;;;;18.10;11.60;;;;;;;15.90;44.89;100368.53;5053493;28;20131;-64
2023/03/03 09:44:42;;;;;;;15.73;10.85;;;;;;;15.91;45.18;100370.25;5053382;28;20080;-63
2023/03/03 09:47:20;;;;;;;;;;;;;;;15.92;45.42;100362.06;5053261;28;20080;-64
2023/03/03 09:50:02;;;;;;;15.20;10.38;;;;;;;15.95;45.31;100369.88;5053378;28;19924;-64
2023/03/03 09:52:40;;;;;;;15.75;9.85;;;;;;;15.98;45.36;100368.78;5053271;28;20410;-64
2023/03/03 09:55:23;;;;;;;14.35;10.30;;;;;;;15.98;45.35;100358.88;5053328;28;20048;-64
2023/03/03 09:58:07;;;;;;;15.73;10.60;;;;;;;16.00;45.43;100362.28;5053089;28;20044;-63
2023/03/03 10:00:51;;;;;;;14.32;10.05;;;;;;;16.03;45.38;100356.66;5053133;28;20048;-64
2023/03/03 10:03:52;;;;;;;15.02;9.95;;;;;;;16.07;45.16;100367.16;5053080;28;20056;-64
2023/03/03 10:06:27;;;;;;;14.18;10.05;;;;;;;16.08;45.38;100355.44;5050809;28;20156;-63
2023/03/03 10:09:20;;;;;;;14.48;9.55;;;;;;;16.09;45.30;100360.69;5053230;28;20128;-64
2023/03/03 10:11:54;;;;;;;15.95;9.88;;;;;;;16.11;45.18;100347.09;5053477;28;20041;-64
2023/03/03 10:14:39;;;;;;;14.98;9.25;;;;;;;16.16;45.07;100352.97;5052827;28;20068;-62
2023/03/03 10:17:25;;;;;;;14.73;9.63;;;;;;;16.18;45.10;100353.69;5053068;28;20158;-64
2023/03/03 10:20:07;;;;;;;14.48;9.75;;;;;;;16.23;45.27;100346.13;5052673;28;20090;-64
2023/03/03 10:22:47;;;;;;;14.35;9.65;;;;;;;16.25;45.25;100344.16;5052693;28;20049;-63
2023/03/03 10:25:26;;;;;;;14.05;9.60;;;;;;;16.30;45.24;100347.28;5052860;28;20486;-63
2023/03/03 10:28:13;;;;;;;13.43;8.82;;;;;;;16.34;45.45;100337.16;5052613;28;20049;-64
2023/03/03 10:30:52;;;;;;;13.77;8.57;;;;;;;16.35;45.14;100339.72;5051764;28;20045;-64
2023/03/03 10:33:43;;;;;;;13.35;8.88;;;;;;;16.40;45.02;100337.47;5052496;28;20041;-64
2023/03/03 10:36:31;;;;;;;12.63;8.32;;;;;;;16.47;45.03;100343.22;5052529;28;20114;-63
2023/03/03 10:39:15;;;;;;;12.05;8.57;;;;;;;16.50;44.84;100333.06;5052385;28;20055;-64
2023/03/03 10:42:01;;;;;;;13.18;8.90;;;;;;;16.55;44.76;100335.34;5053148;28;20053;-64
2023/03/03 10:45:01;;;;;;;11.82;8.32;;;;;;;16.58;44.74;100333.25;5053409;28;20103;-63
2023/03/03 10:48:06;;;;;;;13.90;8.68;;;;;;;16.63;44.60;100326.63;5052415;28;20044;-63
2023/03/03 10:50:42;;;;;;;12.00;8.13;;;;;;;16.69;44.50;100328.81;5031057;28;20080;-63
2023/03/03 10:53:23;;;;;;;12.50;8.23;;;;;;;16.69;44.54;100316.22;5052352;28;20072;-63
2023/03/03 10:56:08;;;;;;;13.27;8.20;;;;;;;16.76;44.60;100328.19;5052192;28;20065;-63
2023/03/03 10:58:53;;;;;;;11.90;8.02;;;;;;;16.82;44.53;100321.44;5052155;28;20136;-64
2023/03/03 11:01:30;;;;;;;11.07;7.68;;;;;;;16.84;44.42;100308.69;5052131;28;20045;-63
2023/03/03 11:04:25;;;;;;;12.57;8.13;;;;;;;16.90;44.22;100313.56;5052185;28;20049;-64
2023/03/03 11:07:02;;;;;;;10.70;7.28;;;;;;;16.93;44.35;100307.91;5052159;28;20045;-63
2023/03/03 11:09:53;;;;;;;11.65;7.85;;;;;;;16.99;44.28;100301.16;5052292;28;20045;-64
2023/03/03 11:12:31;;;;;;;12.88;8.10;;;;;;;17.01;44.42;100297.31;5052019;28;20061;-64
2023/03/03 11:15:17;;;;;;;14.35;8.18;;;;;;;17.04;44.42;100294.34;5051952;28;20045;-63
2023/03/03 11:17:57;;;;;;;10.40;7.63;;;;;;;17.08;44.45;100293.13;5051896;28;20045;-63
2023/03/03 11:20:35;;;;;;;12.90;7.80;;;;;;;17.15;44.13;100286.19;5051941;28;20128;-63
2023/03/03 11:23:17;;;;;;;10.88;7.72;;;;;;;17.19;44.24;100280.56;5051869;28;20132;-64
2023/03/03 11:25:54;;;;;;;11.45;7.57;;;;;;;17.24;44.23;100278.28;5050473;28;20140;-63
2023/03/03 11:28:37;;;;;;;12.23;7.57;;;;;;;17.27;44.13;100268.09;5051738;28;20045;-63
2023/03/03 11:31:19;;;;;;;11.45;7.13;;;;;;;17.33;44.24;100261.31;5051749;28;20045;-64
2023/03/03 11:33:54;;;;;;;10.32;7.10;;;;;;;17.35;44.36;100259.31;5051750;28;20052;-63
2023/03/03 11:36:27;;;;;;;10.63;7.57;;;;;;;17.40;44.33;100262.47;5051785;28;20056;-64
2023/03/03 11:38:58;;;;;;;;;;;;;;;17.42;44.12;100261.34;5051782;28;20060;-64
2023/03/03 11:41:31;;;;;;;9.73;6.65;;;;;;;17.46;44.20;100262.78;5051484;28;19924;-63